sensor_id;sensor_type;location;lat;lon;timestamp;P1;durP1;ratioP1;P2;durP2;ratioP2
7527;SDS011;3805;49.006;8.514;2022-12-05T00:02:47;32.93;;;20.13;;
7527;SDS011;3805;49.006;8.514;2022-12-05T00:05:38;29.63;;;17.27;;
7527;SDS011;3805;49.006;8.514;2022-12-05T00:08:26;33.13;;;18.60;;
7527;SDS011;3805;49.006;8.514;2022-12-05T00:11:16;30.87;;;18.57;;
7527;SDS011;3805;49.006;8.514;2022-12-05T00:14:08;31.20;;;18.40;;
7527;SDS011;3805;49.006;8.514;2022-12-05T00:16:57;35.13;;;18.70;;
7527;SDS011;3805;49.006;8.514;2022-12-05T00:19:46;29.20;;;18.30;;
7527;SDS011;3805;49.006;8.514;2022-12-05T00:22:42;30.70;;;18.87;;
7527;SDS011;3805;49.006;8.514;2022-12-05T00:25:31;32.23;;;18.90;;
7527;SDS011;3805;49.006;8.514;2022-12-05T00:28:19;31.53;;;18.83;;
7527;SDS011;3805;49.006;8.514;2022-12-05T00:31:09;26.47;;;16.90;;
7527;SDS011;3805;49.006;8.514;2022-12-05T00:33:59;24.67;;;18.10;;
7527;SDS011;3805;49.006;8.514;2022-12-05T00:36:48;28.20;;;18.70;;
7527;SDS011;3805;49.006;8.514;2022-12-05T00:39:37;25.23;;;17.33;;
7527;SDS011;3805;49.006;8.514;2022-12-05T00:42:26;30.97;;;19.53;;
7527;SDS011;3805;49.006;8.514;2022-12-05T00:45:14;31.17;;;19.37;;
7527;SDS011;3805;49.006;8.514;2022-12-05T00:48:04;27.47;;;17.70;;
7527;SDS011;3805;49.006;8.514;2022-12-05T00:50:58;27.90;;;19.40;;
7527;SDS011;3805;49.006;8.514;2022-12-05T00:53:47;29.13;;;20.40;;
7527;SDS011;3805;49.006;8.514;2022-12-05T00:56:36;32.33;;;19.90;;
7527;SDS011;3805;49.006;8.514;2022-12-05T00:59:25;34.33;;;20.50;;
7527;SDS011;3805;49.006;8.514;2022-12-05T01:02:13;33.30;;;20.60;;
7527;SDS011;3805;49.006;8.514;2022-12-05T01:05:03;32.40;;;19.60;;
7527;SDS011;3805;49.006;8.514;2022-12-05T01:07:52;33.17;;;20.23;;
7527;SDS011;3805;49.006;8.514;2022-12-05T01:10:41;33.77;;;20.47;;
7527;SDS011;3805;49.006;8.514;2022-12-05T01:13:29;29.50;;;20.77;;
7527;SDS011;3805;49.006;8.514;2022-12-05T01:16:19;31.30;;;21.40;;
7527;SDS011;3805;49.006;8.514;2022-12-05T01:19:10;34.03;;;21.37;;
7527;SDS011;3805;49.006;8.514;2022-12-05T01:22:00;38.50;;;21.77;;
7527;SDS011;3805;49.006;8.514;2022-12-05T01:24:49;31.67;;;21.50;;
7527;SDS011;3805;49.006;8.514;2022-12-05T01:27:37;36.30;;;21.80;;
7527;SDS011;3805;49.006;8.514;2022-12-05T01:30:26;40.37;;;24.23;;
7527;SDS011;3805;49.006;8.514;2022-12-05T01:33:14;41.70;;;22.87;;
7527;SDS011;3805;49.006;8.514;2022-12-05T01:36:03;40.83;;;22.73;;
7527;SDS011;3805;49.006;8.514;2022-12-05T01:38:55;42.50;;;22.50;;
7527;SDS011;3805;49.006;8.514;2022-12-05T01:41:44;39.17;;;22.20;;
7527;SDS011;3805;49.006;8.514;2022-12-05T01:47:49;41.17;;;21.10;;
7527;SDS011;3805;49.006;8.514;2022-12-05T01:50:37;37.23;;;21.17;;
7527;SDS011;3805;49.006;8.514;2022-12-05T01:53:26;38.77;;;21.90;;
7527;SDS011;3805;49.006;8.514;2022-12-05T01:56:17;46.30;;;24.37;;
7527;SDS011;3805;49.006;8.514;2022-12-05T01:59:06;38.37;;;22.50;;
7527;SDS011;3805;49.006;8.514;2022-12-05T02:01:56;44.27;;;23.80;;
7527;SDS011;3805;49.006;8.514;2022-12-05T02:04:47;43.33;;;23.67;;
7527;SDS011;3805;49.006;8.514;2022-12-05T02:07:44;43.43;;;24.90;;
7527;SDS011;3805;49.006;8.514;2022-12-05T02:10:35;43.90;;;23.80;;
7527;SDS011;3805;49.006;8.514;2022-12-05T02:16:48;39.40;;;23.43;;
7527;SDS011;3805;49.006;8.514;2022-12-05T02:23:01;34.47;;;20.20;;
7527;SDS011;3805;49.006;8.514;2022-12-05T02:26:05;37.57;;;20.63;;
7527;SDS011;3805;49.006;8.514;2022-12-05T02:29:12;34.20;;;19.83;;
7527;SDS011;3805;49.006;8.514;2022-12-05T02:32:26;33.57;;;20.10;;
7527;SDS011;3805;49.006;8.514;2022-12-05T02:35:26;36.47;;;19.90;;
7527;SDS011;3805;49.006;8.514;2022-12-05T02:38:22;29.83;;;19.33;;
7527;SDS011;3805;49.006;8.514;2022-12-05T02:41:15;29.70;;;19.60;;
7527;SDS011;3805;49.006;8.514;2022-12-05T02:44:06;29.37;;;20.20;;
7527;SDS011;3805;49.006;8.514;2022-12-05T02:46:58;37.07;;;21.10;;
7527;SDS011;3805;49.006;8.514;2022-12-05T02:49:48;30.53;;;18.37;;
7527;SDS011;3805;49.006;8.514;2022-12-05T02:52:40;34.87;;;20.30;;
7527;SDS011;3805;49.006;8.514;2022-12-05T02:55:29;31.17;;;21.40;;
7527;SDS011;3805;49.006;8.514;2022-12-05T02:58:19;35.37;;;21.23;;
7527;SDS011;3805;49.006;8.514;2022-12-05T03:01:10;27.53;;;19.57;;
7527;SDS011;3805;49.006;8.514;2022-12-05T03:03:59;26.90;;;19.30;;
7527;SDS011;3805;49.006;8.514;2022-12-05T03:06:51;27.97;;;18.10;;
7527;SDS011;3805;49.006;8.514;2022-12-05T03:09:42;24.97;;;18.03;;
7527;SDS011;3805;49.006;8.514;2022-12-05T03:12:34;30.40;;;18.83;;
7527;SDS011;3805;49.006;8.514;2022-12-05T03:15:26;30.43;;;19.67;;
7527;SDS011;3805;49.006;8.514;2022-12-05T03:18:17;27.93;;;19.00;;
7527;SDS011;3805;49.006;8.514;2022-12-05T03:21:12;29.37;;;18.70;;
7527;SDS011;3805;49.006;8.514;2022-12-05T03:24:07;27.83;;;18.20;;
7527;SDS011;3805;49.006;8.514;2022-12-05T03:27:00;26.40;;;17.97;;
7527;SDS011;3805;49.006;8.514;2022-12-05T03:29:55;28.00;;;17.80;;
7527;SDS011;3805;49.006;8.514;2022-12-05T03:32:47;27.87;;;20.40;;
7527;SDS011;3805;49.006;8.514;2022-12-05T03:35:39;27.63;;;18.67;;
7527;SDS011;3805;49.006;8.514;2022-12-05T03:38:32;26.87;;;18.20;;
7527;SDS011;3805;49.006;8.514;2022-12-05T03:41:24;25.80;;;17.93;;
7527;SDS011;3805;49.006;8.514;2022-12-05T03:44:17;28.73;;;17.93;;
7527;SDS011;3805;49.006;8.514;2022-12-05T03:47:09;23.90;;;18.07;;
7527;SDS011;3805;49.006;8.514;2022-12-05T03:50:01;22.40;;;16.60;;
7527;SDS011;3805;49.006;8.514;2022-12-05T03:52:53;26.27;;;18.80;;
7527;SDS011;3805;49.006;8.514;2022-12-05T03:56:04;22.77;;;17.20;;
7527;SDS011;3805;49.006;8.514;2022-12-05T03:58:58;29.90;;;19.40;;
7527;SDS011;3805;49.006;8.514;2022-12-05T04:01:51;24.57;;;17.87;;
7527;SDS011;3805;49.006;8.514;2022-12-05T04:04:43;29.10;;;17.50;;
7527;SDS011;3805;49.006;8.514;2022-12-05T04:07:34;27.33;;;19.33;;
7527;SDS011;3805;49.006;8.514;2022-12-05T04:10:27;32.10;;;20.00;;
7527;SDS011;3805;49.006;8.514;2022-12-05T04:13:18;30.63;;;20.30;;
7527;SDS011;3805;49.006;8.514;2022-12-05T04:16:11;24.97;;;18.40;;
7527;SDS011;3805;49.006;8.514;2022-12-05T04:19:21;28.07;;;17.37;;
7527;SDS011;3805;49.006;8.514;2022-12-05T04:22:12;28.03;;;19.73;;
7527;SDS011;3805;49.006;8.514;2022-12-05T04:25:00;25.13;;;18.33;;
7527;SDS011;3805;49.006;8.514;2022-12-05T04:28:11;26.13;;;18.77;;
7527;SDS011;3805;49.006;8.514;2022-12-05T04:31:09;28.97;;;19.40;;
7527;SDS011;3805;49.006;8.514;2022-12-05T04:34:01;26.30;;;19.27;;
7527;SDS011;3805;49.006;8.514;2022-12-05T04:36:53;24.87;;;18.37;;
7527;SDS011;3805;49.006;8.514;2022-12-05T04:39:43;29.90;;;20.03;;
7527;SDS011;3805;49.006;8.514;2022-12-05T04:42:36;28.30;;;18.53;;
7527;SDS011;3805;49.006;8.514;2022-12-05T04:45:25;26.90;;;18.00;;
7527;SDS011;3805;49.006;8.514;2022-12-05T04:48:15;25.43;;;17.87;;
7527;SDS011;3805;49.006;8.514;2022-12-05T04:51:05;26.87;;;18.10;;
7527;SDS011;3805;49.006;8.514;2022-12-05T04:53:56;27.20;;;18.87;;
7527;SDS011;3805;49.006;8.514;2022-12-05T04:56:47;32.40;;;18.10;;
7527;SDS011;3805;49.006;8.514;2022-12-05T04:59:36;26.80;;;18.83;;
7527;SDS011;3805;49.006;8.514;2022-12-05T05:02:26;27.87;;;18.87;;
7527;SDS011;3805;49.006;8.514;2022-12-05T05:05:19;27.80;;;17.93;;
7527;SDS011;3805;49.006;8.514;2022-12-05T05:08:14;26.90;;;18.77;;
7527;SDS011;3805;49.006;8.514;2022-12-05T05:11:05;26.60;;;18.37;;
7527;SDS011;3805;49.006;8.514;2022-12-05T05:13:58;24.53;;;17.00;;
7527;SDS011;3805;49.006;8.514;2022-12-05T05:16:47;25.07;;;18.27;;
7527;SDS011;3805;49.006;8.514;2022-12-05T05:19:35;27.40;;;19.00;;
7527;SDS011;3805;49.006;8.514;2022-12-05T05:22:25;22.23;;;16.50;;
7527;SDS011;3805;49.006;8.514;2022-12-05T05:25:14;27.50;;;18.80;;
7527;SDS011;3805;49.006;8.514;2022-12-05T05:28:02;24.80;;;17.50;;
7527;SDS011;3805;49.006;8.514;2022-12-05T05:30:51;24.43;;;18.60;;
7527;SDS011;3805;49.006;8.514;2022-12-05T05:33:40;31.10;;;18.83;;
7527;SDS011;3805;49.006;8.514;2022-12-05T05:36:28;26.10;;;16.73;;
7527;SDS011;3805;49.006;8.514;2022-12-05T05:39:18;28.63;;;18.60;;
7527;SDS011;3805;49.006;8.514;2022-12-05T05:42:06;28.00;;;20.57;;
7527;SDS011;3805;49.006;8.514;2022-12-05T05:44:55;25.33;;;18.50;;
7527;SDS011;3805;49.006;8.514;2022-12-05T05:47:44;28.10;;;17.33;;
7527;SDS011;3805;49.006;8.514;2022-12-05T05:50:32;26.93;;;18.50;;
7527;SDS011;3805;49.006;8.514;2022-12-05T05:53:21;26.00;;;19.40;;
7527;SDS011;3805;49.006;8.514;2022-12-05T05:56:11;24.30;;;18.20;;
7527;SDS011;3805;49.006;8.514;2022-12-05T05:59:08;22.80;;;17.17;;
7527;SDS011;3805;49.006;8.514;2022-12-05T06:01:56;27.33;;;19.10;;
7527;SDS011;3805;49.006;8.514;2022-12-05T06:04:45;26.87;;;18.70;;
7527;SDS011;3805;49.006;8.514;2022-12-05T06:07:33;24.07;;;17.90;;
7527;SDS011;3805;49.006;8.514;2022-12-05T06:10:22;26.77;;;19.83;;
7527;SDS011;3805;49.006;8.514;2022-12-05T06:13:12;23.70;;;16.20;;
7527;SDS011;3805;49.006;8.514;2022-12-05T06:16:00;24.90;;;17.17;;
7527;SDS011;3805;49.006;8.514;2022-12-05T06:18:50;23.20;;;16.60;;
7527;SDS011;3805;49.006;8.514;2022-12-05T06:21:38;24.67;;;16.70;;
7527;SDS011;3805;49.006;8.514;2022-12-05T06:24:27;26.63;;;18.63;;
7527;SDS011;3805;49.006;8.514;2022-12-05T06:27:16;23.20;;;16.60;;
7527;SDS011;3805;49.006;8.514;2022-12-05T06:30:06;25.03;;;18.20;;
7527;SDS011;3805;49.006;8.514;2022-12-05T06:32:55;26.60;;;17.20;;
7527;SDS011;3805;49.006;8.514;2022-12-05T06:35:44;24.07;;;17.33;;
7527;SDS011;3805;49.006;8.514;2022-12-05T06:38:33;22.30;;;17.57;;
7527;SDS011;3805;49.006;8.514;2022-12-05T06:41:27;25.00;;;17.27;;
7527;SDS011;3805;49.006;8.514;2022-12-05T06:44:16;24.07;;;17.93;;
7527;SDS011;3805;49.006;8.514;2022-12-05T06:47:06;29.53;;;18.50;;
7527;SDS011;3805;49.006;8.514;2022-12-05T06:49:54;24.47;;;18.13;;
7527;SDS011;3805;49.006;8.514;2022-12-05T06:52:43;23.23;;;17.43;;
7527;SDS011;3805;49.006;8.514;2022-12-05T06:55:32;24.33;;;19.33;;
7527;SDS011;3805;49.006;8.514;2022-12-05T06:58:20;28.17;;;18.33;;
7527;SDS011;3805;49.006;8.514;2022-12-05T07:01:10;24.37;;;17.30;;
7527;SDS011;3805;49.006;8.514;2022-12-05T07:04:18;28.23;;;18.00;;
7527;SDS011;3805;49.006;8.514;2022-12-05T07:07:10;24.10;;;18.90;;
7527;SDS011;3805;49.006;8.514;2022-12-05T07:09:59;30.23;;;20.67;;
7527;SDS011;3805;49.006;8.514;2022-12-05T07:12:47;29.23;;;19.50;;
7527;SDS011;3805;49.006;8.514;2022-12-05T07:15:36;30.93;;;22.47;;
7527;SDS011;3805;49.006;8.514;2022-12-05T07:18:25;29.20;;;21.13;;
7527;SDS011;3805;49.006;8.514;2022-12-05T07:21:15;27.93;;;18.93;;
7527;SDS011;3805;49.006;8.514;2022-12-05T07:24:03;25.30;;;17.73;;
7527;SDS011;3805;49.006;8.514;2022-12-05T07:26:52;24.73;;;17.40;;
7527;SDS011;3805;49.006;8.514;2022-12-05T07:29:41;23.00;;;15.43;;
7527;SDS011;3805;49.006;8.514;2022-12-05T07:32:30;25.37;;;18.40;;
7527;SDS011;3805;49.006;8.514;2022-12-05T07:35:19;24.83;;;16.97;;
7527;SDS011;3805;49.006;8.514;2022-12-05T07:38:09;25.87;;;18.10;;
7527;SDS011;3805;49.006;8.514;2022-12-05T07:40:57;24.03;;;16.57;;
7527;SDS011;3805;49.006;8.514;2022-12-05T07:43:46;23.63;;;18.43;;
7527;SDS011;3805;49.006;8.514;2022-12-05T07:46:35;25.70;;;18.87;;
7527;SDS011;3805;49.006;8.514;2022-12-05T07:49:24;23.50;;;17.90;;
7527;SDS011;3805;49.006;8.514;2022-12-05T07:52:12;24.17;;;17.30;;
7527;SDS011;3805;49.006;8.514;2022-12-05T07:55:02;24.40;;;18.00;;
7527;SDS011;3805;49.006;8.514;2022-12-05T07:57:51;23.47;;;17.63;;
7527;SDS011;3805;49.006;8.514;2022-12-05T08:00:40;24.27;;;18.20;;
7527;SDS011;3805;49.006;8.514;2022-12-05T08:03:29;19.93;;;15.87;;
7527;SDS011;3805;49.006;8.514;2022-12-05T08:06:18;24.30;;;16.40;;
7527;SDS011;3805;49.006;8.514;2022-12-05T08:09:07;19.97;;;16.33;;
7527;SDS011;3805;49.006;8.514;2022-12-05T08:11:57;25.90;;;17.30;;
7527;SDS011;3805;49.006;8.514;2022-12-05T08:14:46;23.07;;;15.80;;
7527;SDS011;3805;49.006;8.514;2022-12-05T08:17:34;22.43;;;16.50;;
7527;SDS011;3805;49.006;8.514;2022-12-05T08:20:22;24.40;;;17.30;;
7527;SDS011;3805;49.006;8.514;2022-12-05T08:23:11;21.23;;;16.20;;
7527;SDS011;3805;49.006;8.514;2022-12-05T08:26:00;23.37;;;17.43;;
7527;SDS011;3805;49.006;8.514;2022-12-05T08:28:52;22.20;;;17.17;;
7527;SDS011;3805;49.006;8.514;2022-12-05T08:31:42;22.50;;;16.37;;
7527;SDS011;3805;49.006;8.514;2022-12-05T08:34:33;25.10;;;17.00;;
7527;SDS011;3805;49.006;8.514;2022-12-05T08:37:21;26.10;;;17.73;;
7527;SDS011;3805;49.006;8.514;2022-12-05T08:40:10;23.10;;;17.40;;
7527;SDS011;3805;49.006;8.514;2022-12-05T08:42:59;22.57;;;16.77;;
7527;SDS011;3805;49.006;8.514;2022-12-05T08:45:50;20.93;;;16.40;;
7527;SDS011;3805;49.006;8.514;2022-12-05T08:48:39;26.70;;;17.70;;
7527;SDS011;3805;49.006;8.514;2022-12-05T08:51:28;24.50;;;16.90;;
7527;SDS011;3805;49.006;8.514;2022-12-05T08:54:16;25.90;;;17.80;;
7527;SDS011;3805;49.006;8.514;2022-12-05T08:57:05;21.10;;;17.57;;
7527;SDS011;3805;49.006;8.514;2022-12-05T08:59:54;26.80;;;19.00;;
7527;SDS011;3805;49.006;8.514;2022-12-05T09:02:44;23.67;;;17.47;;
7527;SDS011;3805;49.006;8.514;2022-12-05T09:05:37;28.50;;;19.47;;
7527;SDS011;3805;49.006;8.514;2022-12-05T09:08:26;24.27;;;17.57;;
7527;SDS011;3805;49.006;8.514;2022-12-05T09:11:15;28.70;;;19.60;;
7527;SDS011;3805;49.006;8.514;2022-12-05T09:14:05;30.50;;;19.70;;
7527;SDS011;3805;49.006;8.514;2022-12-05T09:16:53;25.93;;;17.17;;
7527;SDS011;3805;49.006;8.514;2022-12-05T09:19:43;30.43;;;19.10;;
7527;SDS011;3805;49.006;8.514;2022-12-05T09:22:32;27.50;;;20.13;;
7527;SDS011;3805;49.006;8.514;2022-12-05T09:25:21;33.03;;;21.40;;
7527;SDS011;3805;49.006;8.514;2022-12-05T09:28:09;30.00;;;20.30;;
7527;SDS011;3805;49.006;8.514;2022-12-05T09:30:58;31.70;;;18.93;;
7527;SDS011;3805;49.006;8.514;2022-12-05T09:33:48;26.40;;;19.47;;
7527;SDS011;3805;49.006;8.514;2022-12-05T09:36:39;31.10;;;21.77;;
7527;SDS011;3805;49.006;8.514;2022-12-05T09:39:27;31.50;;;20.27;;
7527;SDS011;3805;49.006;8.514;2022-12-05T09:42:19;33.33;;;20.23;;
7527;SDS011;3805;49.006;8.514;2022-12-05T09:45:22;30.63;;;19.87;;
7527;SDS011;3805;49.006;8.514;2022-12-05T09:48:12;33.33;;;21.13;;
7527;SDS011;3805;49.006;8.514;2022-12-05T09:51:02;26.33;;;18.50;;
7527;SDS011;3805;49.006;8.514;2022-12-05T09:53:52;30.60;;;19.43;;
7527;SDS011;3805;49.006;8.514;2022-12-05T09:56:41;30.50;;;22.10;;
7527;SDS011;3805;49.006;8.514;2022-12-05T09:59:31;30.70;;;20.40;;
7527;SDS011;3805;49.006;8.514;2022-12-05T10:02:21;28.30;;;20.60;;
7527;SDS011;3805;49.006;8.514;2022-12-05T10:05:16;29.37;;;20.00;;
7527;SDS011;3805;49.006;8.514;2022-12-05T10:08:09;27.53;;;19.13;;
7527;SDS011;3805;49.006;8.514;2022-12-05T10:11:04;27.70;;;20.03;;
7527;SDS011;3805;49.006;8.514;2022-12-05T10:13:59;27.27;;;18.70;;
7527;SDS011;3805;49.006;8.514;2022-12-05T10:16:51;31.30;;;17.93;;
7527;SDS011;3805;49.006;8.514;2022-12-05T10:19:42;27.43;;;18.30;;
7527;SDS011;3805;49.006;8.514;2022-12-05T10:22:34;28.93;;;19.67;;
7527;SDS011;3805;49.006;8.514;2022-12-05T10:25:27;25.13;;;18.10;;
7527;SDS011;3805;49.006;8.514;2022-12-05T10:28:23;30.93;;;19.50;;
7527;SDS011;3805;49.006;8.514;2022-12-05T10:31:17;23.97;;;18.97;;
7527;SDS011;3805;49.006;8.514;2022-12-05T10:34:10;27.60;;;18.67;;
7527;SDS011;3805;49.006;8.514;2022-12-05T10:37:01;26.63;;;18.60;;
7527;SDS011;3805;49.006;8.514;2022-12-05T10:39:57;26.10;;;19.87;;
7527;SDS011;3805;49.006;8.514;2022-12-05T10:42:46;25.50;;;17.97;;
7527;SDS011;3805;49.006;8.514;2022-12-05T10:45:39;24.47;;;17.87;;
7527;SDS011;3805;49.006;8.514;2022-12-05T10:48:29;27.90;;;18.60;;
7527;SDS011;3805;49.006;8.514;2022-12-05T10:51:25;25.50;;;17.37;;
7527;SDS011;3805;49.006;8.514;2022-12-05T10:54:23;27.33;;;17.37;;
7527;SDS011;3805;49.006;8.514;2022-12-05T10:57:20;30.50;;;20.40;;
7527;SDS011;3805;49.006;8.514;2022-12-05T11:00:11;25.80;;;17.50;;
7527;SDS011;3805;49.006;8.514;2022-12-05T11:03:03;21.77;;;17.03;;
7527;SDS011;3805;49.006;8.514;2022-12-05T11:05:53;21.83;;;17.13;;
7527;SDS011;3805;49.006;8.514;2022-12-05T11:08:44;28.60;;;19.43;;
7527;SDS011;3805;49.006;8.514;2022-12-05T11:12:02;23.40;;;17.83;;
7527;SDS011;3805;49.006;8.514;2022-12-05T11:14:54;21.17;;;15.30;;
7527;SDS011;3805;49.006;8.514;2022-12-05T11:17:45;22.80;;;15.83;;
7527;SDS011;3805;49.006;8.514;2022-12-05T11:20:37;21.47;;;15.40;;
7527;SDS011;3805;49.006;8.514;2022-12-05T11:23:27;20.60;;;16.33;;
7527;SDS011;3805;49.006;8.514;2022-12-05T11:26:17;24.20;;;16.90;;
7527;SDS011;3805;49.006;8.514;2022-12-05T11:29:19;25.83;;;17.27;;
7527;SDS011;3805;49.006;8.514;2022-12-05T11:32:16;23.13;;;17.20;;
7527;SDS011;3805;49.006;8.514;2022-12-05T11:35:07;26.23;;;17.20;;
7527;SDS011;3805;49.006;8.514;2022-12-05T11:38:01;24.57;;;16.70;;
7527;SDS011;3805;49.006;8.514;2022-12-05T11:40:52;23.20;;;17.10;;
7527;SDS011;3805;49.006;8.514;2022-12-05T11:47:06;24.37;;;17.30;;
7527;SDS011;3805;49.006;8.514;2022-12-05T11:50:14;24.13;;;17.10;;
7527;SDS011;3805;49.006;8.514;2022-12-05T11:53:15;26.20;;;18.10;;
7527;SDS011;3805;49.006;8.514;2022-12-05T11:56:20;25.17;;;17.53;;
7527;SDS011;3805;49.006;8.514;2022-12-05T11:59:20;23.30;;;17.33;;
7527;SDS011;3805;49.006;8.514;2022-12-05T12:02:19;24.40;;;17.50;;
7527;SDS011;3805;49.006;8.514;2022-12-05T12:05:17;24.13;;;16.27;;
7527;SDS011;3805;49.006;8.514;2022-12-05T12:08:10;21.80;;;16.50;;
7527;SDS011;3805;49.006;8.514;2022-12-05T12:11:07;24.77;;;18.23;;
7527;SDS011;3805;49.006;8.514;2022-12-05T12:14:00;22.63;;;17.00;;
7527;SDS011;3805;49.006;8.514;2022-12-05T12:16:57;26.00;;;17.40;;
7527;SDS011;3805;49.006;8.514;2022-12-05T12:19:57;26.77;;;17.20;;
7527;SDS011;3805;49.006;8.514;2022-12-05T12:23:00;21.97;;;15.70;;
7527;SDS011;3805;49.006;8.514;2022-12-05T12:26:03;20.77;;;17.40;;
7527;SDS011;3805;49.006;8.514;2022-12-05T12:28:55;23.60;;;16.30;;
7527;SDS011;3805;49.006;8.514;2022-12-05T12:31:53;21.27;;;15.10;;
7527;SDS011;3805;49.006;8.514;2022-12-05T12:34:54;19.37;;;15.10;;
7527;SDS011;3805;49.006;8.514;2022-12-05T12:37:53;22.90;;;16.10;;
7527;SDS011;3805;49.006;8.514;2022-12-05T12:40:57;20.20;;;15.63;;
7527;SDS011;3805;49.006;8.514;2022-12-05T12:43:53;18.83;;;14.60;;
7527;SDS011;3805;49.006;8.514;2022-12-05T12:46:49;19.77;;;15.43;;
7527;SDS011;3805;49.006;8.514;2022-12-05T12:49:44;26.10;;;16.33;;
7527;SDS011;3805;49.006;8.514;2022-12-05T12:52:44;19.20;;;15.90;;
7527;SDS011;3805;49.006;8.514;2022-12-05T12:55:49;16.97;;;14.50;;
7527;SDS011;3805;49.006;8.514;2022-12-05T12:58:49;21.23;;;16.17;;
7527;SDS011;3805;49.006;8.514;2022-12-05T13:01:39;18.73;;;14.27;;
7527;SDS011;3805;49.006;8.514;2022-12-05T13:04:32;22.83;;;15.60;;
7527;SDS011;3805;49.006;8.514;2022-12-05T13:07:27;18.57;;;14.90;;
7527;SDS011;3805;49.006;8.514;2022-12-05T13:10:21;18.70;;;14.43;;
7527;SDS011;3805;49.006;8.514;2022-12-05T13:13:13;18.20;;;14.50;;
7527;SDS011;3805;49.006;8.514;2022-12-05T13:16:07;18.30;;;13.97;;
7527;SDS011;3805;49.006;8.514;2022-12-05T13:18:58;18.97;;;13.60;;
7527;SDS011;3805;49.006;8.514;2022-12-05T13:21:46;17.07;;;13.70;;
7527;SDS011;3805;49.006;8.514;2022-12-05T13:24:35;17.03;;;13.37;;
7527;SDS011;3805;49.006;8.514;2022-12-05T13:27:24;18.77;;;13.87;;
7527;SDS011;3805;49.006;8.514;2022-12-05T13:30:14;18.50;;;14.20;;
7527;SDS011;3805;49.006;8.514;2022-12-05T13:33:06;19.83;;;13.60;;
7527;SDS011;3805;49.006;8.514;2022-12-05T13:35:56;20.67;;;15.30;;
7527;SDS011;3805;49.006;8.514;2022-12-05T13:39:16;21.13;;;14.03;;
7527;SDS011;3805;49.006;8.514;2022-12-05T13:42:24;18.20;;;13.80;;
7527;SDS011;3805;49.006;8.514;2022-12-05T13:45:16;16.77;;;13.33;;
7527;SDS011;3805;49.006;8.514;2022-12-05T13:48:13;21.10;;;14.17;;
7527;SDS011;3805;49.006;8.514;2022-12-05T13:51:07;19.93;;;13.67;;
7527;SDS011;3805;49.006;8.514;2022-12-05T13:53:59;20.70;;;14.13;;
7527;SDS011;3805;49.006;8.514;2022-12-05T13:56:52;21.17;;;14.50;;
7527;SDS011;3805;49.006;8.514;2022-12-05T13:59:58;21.70;;;15.60;;
7527;SDS011;3805;49.006;8.514;2022-12-05T14:02:51;17.80;;;13.80;;
7527;SDS011;3805;49.006;8.514;2022-12-05T14:05:46;17.47;;;14.57;;
7527;SDS011;3805;49.006;8.514;2022-12-05T14:11:46;19.10;;;13.40;;
7527;SDS011;3805;49.006;8.514;2022-12-05T14:15:23;17.23;;;13.70;;
7527;SDS011;3805;49.006;8.514;2022-12-05T14:18:20;17.00;;;12.63;;
7527;SDS011;3805;49.006;8.514;2022-12-05T14:21:12;18.20;;;13.53;;
7527;SDS011;3805;49.006;8.514;2022-12-05T14:24:04;15.47;;;13.27;;
7527;SDS011;3805;49.006;8.514;2022-12-05T14:26:56;16.97;;;12.10;;
7527;SDS011;3805;49.006;8.514;2022-12-05T14:29:56;14.57;;;13.03;;
7527;SDS011;3805;49.006;8.514;2022-12-05T14:32:48;15.03;;;12.90;;
7527;SDS011;3805;49.006;8.514;2022-12-05T14:35:39;12.97;;;11.10;;
7527;SDS011;3805;49.006;8.514;2022-12-05T14:38:34;10.87;;;9.03;;
7527;SDS011;3805;49.006;8.514;2022-12-05T14:41:26;9.80;;;8.57;;
7527;SDS011;3805;49.006;8.514;2022-12-05T14:44:19;10.00;;;9.03;;
7527;SDS011;3805;49.006;8.514;2022-12-05T14:47:08;8.27;;;7.17;;
7527;SDS011;3805;49.006;8.514;2022-12-05T14:53:26;7.23;;;6.50;;
7527;SDS011;3805;49.006;8.514;2022-12-05T14:56:28;7.37;;;6.77;;
7527;SDS011;3805;49.006;8.514;2022-12-05T14:59:21;7.77;;;6.97;;
7527;SDS011;3805;49.006;8.514;2022-12-05T15:02:15;6.80;;;6.20;;
7527;SDS011;3805;49.006;8.514;2022-12-05T15:05:13;9.27;;;6.57;;
7527;SDS011;3805;49.006;8.514;2022-12-05T15:08:08;6.90;;;6.13;;
7527;SDS011;3805;49.006;8.514;2022-12-05T15:11:00;7.93;;;7.13;;
7527;SDS011;3805;49.006;8.514;2022-12-05T15:13:49;6.33;;;5.83;;
7527;SDS011;3805;49.006;8.514;2022-12-05T15:16:39;6.80;;;6.30;;
7527;SDS011;3805;49.006;8.514;2022-12-05T15:19:31;6.00;;;5.60;;
7527;SDS011;3805;49.006;8.514;2022-12-05T15:22:26;7.40;;;6.80;;
7527;SDS011;3805;49.006;8.514;2022-12-05T15:25:25;7.50;;;6.90;;
7527;SDS011;3805;49.006;8.514;2022-12-05T15:28:18;6.27;;;5.73;;
7527;SDS011;3805;49.006;8.514;2022-12-05T15:31:07;5.63;;;5.10;;
7527;SDS011;3805;49.006;8.514;2022-12-05T15:34:00;5.93;;;5.47;;
7527;SDS011;3805;49.006;8.514;2022-12-05T15:36:54;5.70;;;5.10;;
7527;SDS011;3805;49.006;8.514;2022-12-05T15:39:49;4.77;;;4.40;;
7527;SDS011;3805;49.006;8.514;2022-12-05T15:42:41;5.17;;;4.77;;
7527;SDS011;3805;49.006;8.514;2022-12-05T15:45:32;4.73;;;4.33;;
7527;SDS011;3805;49.006;8.514;2022-12-05T15:48:21;5.47;;;5.03;;
7527;SDS011;3805;49.006;8.514;2022-12-05T15:51:10;5.07;;;4.67;;
7527;SDS011;3805;49.006;8.514;2022-12-05T15:53:59;5.10;;;4.70;;
7527;SDS011;3805;49.006;8.514;2022-12-05T15:56:52;5.47;;;5.00;;
7527;SDS011;3805;49.006;8.514;2022-12-05T15:59:44;8.53;;;4.60;;
7527;SDS011;3805;49.006;8.514;2022-12-05T16:02:38;6.20;;;5.80;;
7527;SDS011;3805;49.006;8.514;2022-12-05T16:05:30;6.23;;;5.63;;
7527;SDS011;3805;49.006;8.514;2022-12-05T16:08:21;5.57;;;4.93;;
7527;SDS011;3805;49.006;8.514;2022-12-05T16:11:11;5.97;;;5.47;;
7527;SDS011;3805;49.006;8.514;2022-12-05T16:14:01;5.77;;;5.27;;
7527;SDS011;3805;49.006;8.514;2022-12-05T16:16:56;5.93;;;5.43;;
7527;SDS011;3805;49.006;8.514;2022-12-05T16:19:47;6.43;;;5.87;;
7527;SDS011;3805;49.006;8.514;2022-12-05T16:22:36;6.07;;;5.57;;
7527;SDS011;3805;49.006;8.514;2022-12-05T16:25:32;6.77;;;6.23;;
7527;SDS011;3805;49.006;8.514;2022-12-05T16:28:21;7.10;;;6.43;;
7527;SDS011;3805;49.006;8.514;2022-12-05T16:31:12;6.03;;;5.53;;
7527;SDS011;3805;49.006;8.514;2022-12-05T16:34:05;8.83;;;6.37;;
7527;SDS011;3805;49.006;8.514;2022-12-05T16:36:56;7.00;;;6.30;;
7527;SDS011;3805;49.006;8.514;2022-12-05T16:39:45;6.10;;;5.60;;
7527;SDS011;3805;49.006;8.514;2022-12-05T16:42:34;5.70;;;5.20;;
7527;SDS011;3805;49.006;8.514;2022-12-05T16:45:36;7.30;;;5.83;;
7527;SDS011;3805;49.006;8.514;2022-12-05T16:48:26;7.00;;;5.90;;
7527;SDS011;3805;49.006;8.514;2022-12-05T16:51:18;5.97;;;5.50;;
7527;SDS011;3805;49.006;8.514;2022-12-05T16:54:09;6.97;;;6.37;;
7527;SDS011;3805;49.006;8.514;2022-12-05T16:56:58;7.30;;;6.60;;
7527;SDS011;3805;49.006;8.514;2022-12-05T16:59:47;11.40;;;6.60;;
7527;SDS011;3805;49.006;8.514;2022-12-05T17:02:36;7.00;;;6.40;;
7527;SDS011;3805;49.006;8.514;2022-12-05T17:05:25;7.03;;;6.37;;
7527;SDS011;3805;49.006;8.514;2022-12-05T17:08:14;5.93;;;5.50;;
7527;SDS011;3805;49.006;8.514;2022-12-05T17:11:05;7.53;;;6.50;;
7527;SDS011;3805;49.006;8.514;2022-12-05T17:13:55;8.13;;;6.97;;
7527;SDS011;3805;49.006;8.514;2022-12-05T17:16:44;9.93;;;8.90;;
7527;SDS011;3805;49.006;8.514;2022-12-05T17:19:33;9.87;;;8.87;;
7527;SDS011;3805;49.006;8.514;2022-12-05T17:22:21;8.70;;;7.80;;
7527;SDS011;3805;49.006;8.514;2022-12-05T17:25:16;9.00;;;8.20;;
7527;SDS011;3805;49.006;8.514;2022-12-05T17:28:07;8.00;;;7.20;;
7527;SDS011;3805;49.006;8.514;2022-12-05T17:30:56;8.37;;;7.57;;
7527;SDS011;3805;49.006;8.514;2022-12-05T17:33:45;15.80;;;8.80;;
7527;SDS011;3805;49.006;8.514;2022-12-05T17:36:36;8.90;;;8.07;;
7527;SDS011;3805;49.006;8.514;2022-12-05T17:39:25;11.97;;;10.10;;
7527;SDS011;3805;49.006;8.514;2022-12-05T17:42:15;12.70;;;11.23;;
7527;SDS011;3805;49.006;8.514;2022-12-05T17:45:06;10.80;;;9.77;;